createdAt,value
2023-05-18T00:02:07.043Z,8.54
2023-05-18T00:04:34.679Z,8.54
2023-05-18T00:07:05.345Z,8.56
2023-05-18T00:09:37.048Z,8.54
2023-05-18T00:12:04.678Z,8.41
2023-05-18T00:14:31.394Z,8.44
2023-05-18T00:16:58.007Z,8.41
2023-05-18T00:19:25.150Z,8.44
2023-05-18T00:21:52.595Z,8.40
2023-05-18T00:24:19.365Z,8.45
2023-05-18T00:26:47.177Z,8.40
2023-05-18T00:29:13.751Z,8.40
2023-05-18T00:31:40.541Z,8.41
2023-05-18T00:34:10.696Z,8.39
2023-05-18T00:36:37.886Z,8.42
2023-05-18T00:39:05.869Z,8.32
2023-05-18T00:41:32.922Z,8.30
2023-05-18T00:44:00.532Z,8.23
2023-05-18T00:46:28.386Z,8.22
2023-05-18T00:48:57.169Z,8.18
2023-05-18T00:51:24.708Z,8.12
2023-05-18T00:53:52.642Z,8.01
2023-05-18T00:56:20.066Z,7.98
2023-05-18T00:58:47.829Z,8.00
2023-05-18T01:01:17.831Z,8.00
2023-05-18T01:03:44.718Z,7.87
2023-05-18T01:06:12.850Z,7.79
2023-05-18T01:08:39.410Z,7.70
2023-05-18T01:11:33.842Z,7.79
2023-05-18T01:14:15.943Z,7.76
2023-05-18T01:16:54.288Z,7.64
2023-05-18T01:19:51.874Z,7.80
2023-05-18T01:22:37.740Z,7.88
2023-05-18T01:25:32.058Z,7.81
2023-05-18T01:28:06.582Z,7.57
2023-05-18T01:30:41.195Z,7.45
2023-05-18T01:33:11.051Z,7.55
2023-05-18T01:35:38.648Z,7.51
2023-05-18T01:38:05.171Z,7.44
2023-05-18T01:40:37.133Z,7.43
2023-05-18T01:43:16.057Z,7.47
2023-05-18T01:45:46.984Z,7.30
2023-05-18T01:48:18.542Z,7.26
2023-05-18T01:50:48.893Z,7.27
2023-05-18T01:53:42.913Z,7.29
2023-05-18T01:56:12.650Z,7.31
2023-05-18T01:58:40.112Z,7.26
2023-05-18T02:01:06.973Z,7.24
2023-05-18T02:03:33.626Z,7.20
2023-05-18T02:06:00.357Z,7.36
2023-05-18T02:08:27.014Z,7.28
2023-05-18T02:10:53.522Z,7.14
2023-05-18T02:13:19.986Z,7.08
2023-05-18T02:15:46.519Z,7.06
2023-05-18T02:18:13.034Z,7.06
2023-05-18T02:20:40.501Z,7.02
2023-05-18T02:23:06.973Z,7.03
2023-05-18T02:25:33.776Z,7.00
2023-05-18T02:28:00.407Z,7.03
2023-05-18T02:30:26.906Z,7.02
2023-05-18T02:32:53.416Z,6.96
2023-05-18T02:35:19.872Z,6.98
2023-05-18T02:37:47.261Z,6.99
2023-05-18T02:40:15.824Z,7.00
2023-05-18T02:42:42.491Z,6.92
2023-05-18T02:45:10.770Z,6.90
2023-05-18T02:47:38.410Z,6.92
2023-05-18T02:50:06.389Z,6.76
2023-05-18T02:52:34.011Z,6.67
2023-05-18T02:55:00.585Z,6.77
2023-05-18T02:57:48.164Z,6.68
2023-05-18T03:00:19.697Z,6.55
2023-05-18T03:02:48.354Z,6.47
2023-05-18T03:05:16.598Z,6.48
2023-05-18T03:07:50.545Z,6.50
2023-05-18T03:10:22.555Z,6.45
2023-05-18T03:12:49.707Z,6.40
2023-05-18T03:15:16.946Z,6.41
2023-05-18T03:17:43.712Z,6.49
2023-05-18T03:20:11.593Z,6.42
2023-05-18T03:22:38.180Z,6.47
2023-05-18T03:25:05.188Z,6.54
2023-05-18T03:27:31.855Z,6.54
2023-05-18T03:29:58.438Z,6.48
2023-05-18T03:32:25.510Z,6.46
2023-05-18T03:34:53.068Z,6.45
2023-05-18T03:37:21.296Z,6.47
2023-05-18T03:39:47.730Z,6.46
2023-05-18T03:42:15.374Z,6.37
2023-05-18T03:44:41.998Z,6.36
2023-05-18T03:47:08.855Z,6.24
2023-05-18T03:49:35.787Z,6.25
2023-05-18T03:52:04.380Z,6.26
2023-05-18T03:54:30.831Z,6.22
2023-05-18T03:56:57.272Z,6.22
2023-05-18T03:59:23.700Z,6.41
2023-05-18T04:01:53.870Z,6.52
2023-05-18T04:04:23.475Z,6.52
2023-05-18T04:06:51.547Z,6.48
2023-05-18T04:09:19.068Z,6.49
2023-05-18T04:11:45.757Z,6.51
2023-05-18T04:14:12.446Z,6.54
2023-05-18T04:16:38.984Z,6.53
2023-05-18T04:19:08.144Z,6.66
2023-05-18T04:21:36.055Z,6.74
2023-05-18T04:24:05.427Z,6.75
2023-05-18T04:26:34.634Z,6.82
2023-05-18T04:29:01.111Z,6.78
2023-05-18T04:31:27.985Z,6.85
2023-05-18T04:33:54.716Z,6.88
2023-05-18T04:36:25.618Z,6.95
2023-05-18T04:38:52.754Z,7.00
2023-05-18T04:41:22.647Z,7.09
2023-05-18T04:43:50.257Z,7.23
2023-05-18T04:46:17.098Z,7.24
2023-05-18T04:48:44.999Z,7.30
2023-05-18T04:51:11.510Z,7.45
2023-05-18T04:53:39.013Z,7.49
2023-05-18T04:56:06.411Z,7.62
2023-05-18T04:58:35.554Z,7.65
2023-05-18T05:01:02.199Z,7.86
2023-05-18T05:03:29.028Z,7.86
2023-05-18T05:05:55.853Z,7.93
2023-05-18T05:08:23.810Z,8.04
2023-05-18T05:10:50.255Z,8.23
2023-05-18T05:13:16.700Z,8.32
2023-05-18T05:15:43.223Z,8.40
2023-05-18T05:18:09.758Z,8.45
2023-05-18T05:20:36.309Z,8.72
2023-05-18T05:23:02.858Z,8.94
2023-05-18T05:25:29.823Z,8.80
2023-05-18T05:27:56.446Z,8.94
2023-05-18T05:30:23.367Z,9.01
2023-05-18T05:32:50.016Z,9.23
2023-05-18T05:35:16.860Z,9.38
2023-05-18T05:37:44.542Z,9.74
2023-05-18T05:40:11.324Z,10.10
2023-05-18T05:42:42.296Z,10.22
2023-05-18T05:45:08.934Z,10.54
2023-05-18T05:47:42.656Z,10.77
2023-05-18T05:50:09.295Z,11.07
2023-05-18T05:52:36.627Z,11.24
2023-05-18T05:55:04.778Z,11.44
2023-05-18T05:57:31.752Z,11.85
2023-05-18T05:59:59.260Z,12.28
2023-05-18T06:02:26.788Z,12.66
2023-05-18T06:04:54.364Z,12.67
2023-05-18T06:07:20.910Z,12.58
2023-05-18T06:09:47.413Z,12.83
2023-05-18T06:12:13.975Z,13.02
2023-05-18T06:14:40.499Z,13.22
2023-05-18T06:17:08.179Z,13.46
2023-05-18T06:19:34.709Z,13.64
2023-05-18T06:22:02.144Z,13.58
2023-05-18T06:24:33.927Z,13.93
2023-05-18T06:27:23.350Z,14.01
2023-05-18T06:30:01.420Z,13.85
2023-05-18T06:32:37.354Z,13.85
2023-05-18T06:35:04.417Z,13.80
2023-05-18T06:37:31.429Z,14.04
2023-05-18T06:39:58.482Z,14.22
2023-05-18T06:42:25.018Z,14.39
2023-05-18T06:45:00.457Z,14.52
2023-05-18T06:47:48.576Z,14.47
2023-05-18T06:50:15.104Z,14.68
2023-05-18T06:52:42.137Z,14.83
2023-05-18T06:55:09.603Z,14.44
2023-05-18T06:57:36.160Z,14.65
2023-05-18T07:00:07.078Z,15.16
2023-05-18T07:02:34.223Z,15.12
2023-05-18T07:05:01.524Z,15.43
2023-05-18T07:07:27.984Z,15.72
2023-05-18T07:09:54.939Z,16.19
2023-05-18T07:12:21.474Z,15.89
2023-05-18T07:14:47.980Z,15.69
2023-05-18T07:17:14.491Z,15.83
2023-05-18T07:19:40.985Z,15.92
2023-05-18T07:22:07.650Z,15.99
2023-05-18T07:24:34.225Z,16.34
2023-05-18T07:27:01.007Z,16.44
2023-05-18T07:29:29.783Z,16.28
2023-05-18T07:31:56.351Z,16.31
2023-05-18T07:34:23.782Z,16.56
2023-05-18T07:36:50.616Z,16.83
2023-05-18T07:39:19.698Z,17.21
2023-05-18T07:41:47.332Z,17.25
2023-05-18T07:44:14.319Z,17.11
2023-05-18T07:46:41.295Z,16.92
2023-05-18T07:49:07.769Z,17.11
2023-05-18T07:51:34.301Z,15.97
2023-05-18T07:54:01.017Z,16.53
2023-05-18T07:56:27.483Z,16.97
2023-05-18T07:58:53.917Z,17.07
2023-05-18T08:01:22.050Z,16.54
2023-05-18T08:03:48.586Z,16.30
2023-05-18T08:06:15.097Z,16.66
2023-05-18T08:08:41.561Z,16.31
2023-05-18T08:11:08.011Z,16.12
2023-05-18T08:13:34.477Z,15.52
2023-05-18T08:16:11.294Z,15.26
2023-05-18T08:18:38.666Z,15.79
2023-05-18T08:21:08.075Z,15.85
2023-05-18T08:23:34.960Z,16.34
2023-05-18T08:26:03.327Z,16.72
2023-05-18T08:28:31.083Z,15.81
2023-05-18T08:30:57.993Z,15.89
2023-05-18T08:33:24.494Z,15.43
2023-05-18T08:35:51.183Z,15.46
2023-05-18T08:38:17.780Z,15.79
2023-05-18T08:40:56.578Z,15.95
2023-05-18T08:43:30.085Z,15.71
2023-05-18T08:46:04.061Z,15.80
2023-05-18T08:48:32.131Z,15.48
2023-05-18T08:50:58.973Z,15.44
2023-05-18T08:53:25.863Z,15.97
2023-05-18T08:55:57.431Z,16.01
2023-05-18T08:58:34.316Z,15.59
2023-05-18T09:01:00.849Z,15.90
2023-05-18T09:03:27.539Z,16.00
2023-05-18T09:05:56.237Z,15.70
2023-05-18T09:08:23.565Z,15.46
2023-05-18T09:10:50.855Z,15.29
2023-05-18T09:13:22.550Z,14.97
2023-05-18T09:15:49.164Z,15.71
2023-05-18T09:18:15.621Z,16.03
2023-05-18T09:20:42.140Z,16.26
2023-05-18T09:23:08.608Z,16.45
2023-05-18T09:25:38.741Z,15.91
2023-05-18T09:28:05.249Z,15.72
2023-05-18T09:30:40.218Z,15.86
2023-05-18T09:33:17.161Z,16.01
2023-05-18T09:35:47.084Z,16.17
2023-05-18T09:38:17.456Z,16.14
2023-05-18T09:40:45.382Z,15.71
2023-05-18T09:43:11.896Z,16.05
2023-05-18T09:45:46.894Z,15.96
2023-05-18T09:48:14.348Z,15.90
2023-05-18T09:50:42.725Z,16.46
2023-05-18T09:53:10.160Z,16.50
2023-05-18T09:55:44.352Z,16.65
2023-05-18T09:58:10.899Z,16.79
2023-05-18T10:00:40.687Z,16.53
2023-05-18T10:03:17.175Z,16.66
2023-05-18T10:05:43.674Z,16.66
2023-05-18T10:08:12.421Z,16.90
2023-05-18T10:10:40.687Z,16.65
2023-05-18T10:13:07.224Z,17.06
2023-05-18T10:15:35.427Z,17.11
2023-05-18T10:18:03.553Z,17.04
2023-05-18T10:20:30.380Z,17.01
2023-05-18T10:23:00.759Z,17.17
2023-05-18T10:25:29.095Z,17.17
2023-05-18T10:28:05.057Z,16.94
2023-05-18T10:30:32.870Z,16.73
2023-05-18T10:33:00.337Z,16.74
2023-05-18T10:35:28.438Z,17.01
2023-05-18T10:37:57.564Z,16.79
2023-05-18T10:40:24.412Z,16.85
2023-05-18T10:42:52.236Z,16.44
2023-05-18T10:45:19.413Z,16.49
2023-05-18T10:47:47.835Z,16.58
2023-05-18T10:50:15.214Z,16.54
2023-05-18T10:52:42.393Z,16.88
2023-05-18T10:55:09.298Z,17.40
2023-05-18T10:57:42.245Z,17.19
2023-05-18T11:00:10.192Z,17.36
2023-05-18T11:02:42.222Z,17.19
2023-05-18T11:05:10.364Z,16.85
2023-05-18T11:07:37.793Z,17.08
2023-05-18T11:10:09.523Z,17.20
2023-05-18T11:12:38.345Z,17.31
2023-05-18T11:15:05.972Z,17.45
2023-05-18T11:17:32.529Z,17.48
2023-05-18T11:20:12.757Z,17.24
2023-05-18T11:22:57.179Z,16.88
2023-05-18T11:25:32.874Z,16.86
2023-05-18T11:28:04.678Z,16.67
2023-05-18T11:30:34.371Z,17.19
2023-05-18T11:33:42.885Z,17.07
2023-05-18T11:36:11.711Z,17.56
2023-05-18T11:38:55.461Z,17.81
2023-05-18T11:41:36.093Z,17.65
2023-05-18T11:44:06.899Z,17.37
2023-05-18T11:46:33.922Z,16.68
2023-05-18T11:49:19.894Z,16.94
2023-05-18T11:51:58.445Z,17.22
2023-05-18T11:54:26.550Z,16.86
2023-05-18T11:56:53.486Z,17.45
2023-05-18T11:59:46.089Z,17.75
2023-05-18T12:02:18.568Z,17.84
2023-05-18T12:04:47.913Z,17.73
2023-05-18T12:07:15.429Z,17.28
2023-05-18T12:09:43.313Z,17.17
2023-05-18T12:12:11.403Z,17.48
2023-05-18T12:14:41.037Z,17.61
2023-05-18T12:17:07.691Z,17.58
2023-05-18T12:19:38.834Z,17.83
2023-05-18T12:22:06.355Z,17.82
2023-05-18T12:24:32.889Z,17.84
2023-05-18T12:27:06.846Z,18.01
2023-05-18T12:29:37.590Z,18.18
2023-05-18T12:32:09.417Z,18.10
2023-05-18T12:34:36.603Z,18.14
2023-05-18T12:37:03.817Z,18.41
2023-05-18T12:39:30.401Z,18.65
2023-05-18T12:42:15.084Z,18.70
2023-05-18T12:44:45.874Z,18.60
2023-05-18T12:47:13.725Z,18.50
2023-05-18T12:49:42.666Z,18.18
2023-05-18T12:52:11.428Z,18.35
2023-05-18T12:54:49.585Z,18.36
2023-05-18T12:57:16.335Z,18.55
2023-05-18T12:59:51.430Z,18.76
2023-05-18T13:02:34.913Z,18.64
2023-05-18T13:05:10.103Z,18.85
2023-05-18T13:07:41.583Z,18.81
2023-05-18T13:10:13.269Z,19.06
2023-05-18T13:12:44.512Z,19.32
2023-05-18T13:15:22.257Z,18.73
2023-05-18T13:17:58.797Z,18.83
2023-05-18T13:20:36.454Z,18.47
2023-05-18T13:23:06.882Z,18.30
2023-05-18T13:25:33.754Z,17.96
2023-05-18T13:28:01.317Z,18.10
2023-05-18T13:30:27.861Z,18.15
2023-05-18T13:32:54.507Z,18.50
2023-05-18T13:35:21.446Z,18.50
2023-05-18T13:37:49.102Z,18.27
2023-05-18T13:40:16.784Z,18.08
2023-05-18T13:42:44.201Z,18.59
2023-05-18T13:45:13.749Z,18.86
2023-05-18T13:47:41.677Z,18.74
2023-05-18T13:50:09.427Z,18.12
2023-05-18T13:52:36.512Z,17.90
2023-05-18T13:55:04.690Z,18.47
2023-05-18T13:57:32.321Z,18.46
2023-05-18T13:59:59.612Z,18.69
2023-05-18T14:02:26.542Z,19.15
2023-05-18T14:04:53.542Z,18.98
2023-05-18T14:07:20.150Z,19.22
2023-05-18T14:09:46.602Z,18.90
2023-05-18T14:12:13.129Z,18.58
2023-05-18T14:14:41.028Z,18.55
2023-05-18T14:17:09.822Z,18.61
2023-05-18T14:19:37.677Z,18.72
2023-05-18T14:22:04.237Z,18.61
2023-05-18T14:24:30.753Z,18.68
2023-05-18T14:26:57.311Z,18.79
2023-05-18T14:29:23.762Z,18.85
2023-05-18T14:31:50.279Z,18.98
2023-05-18T14:34:16.744Z,19.12
2023-05-18T14:36:43.197Z,18.63
2023-05-18T14:39:09.655Z,18.60
2023-05-18T14:41:36.215Z,18.72
2023-05-18T14:44:08.538Z,18.56
2023-05-18T14:46:35.961Z,18.36
2023-05-18T14:49:03.017Z,18.25
2023-05-18T14:51:29.485Z,18.35
2023-05-18T14:53:55.956Z,18.42
2023-05-18T14:56:22.765Z,18.69
2023-05-18T14:58:49.294Z,18.69
2023-05-18T15:01:15.734Z,18.41
2023-05-18T15:03:42.576Z,18.65
2023-05-18T15:06:09.542Z,18.72
2023-05-18T15:08:36.183Z,18.44
2023-05-18T15:11:02.640Z,18.10
2023-05-18T15:13:29.109Z,17.85
2023-05-18T15:15:55.678Z,17.98
2023-05-18T15:18:22.169Z,18.17
2023-05-18T15:20:48.696Z,18.17
2023-05-18T15:23:15.205Z,18.47
2023-05-18T15:25:41.728Z,18.28
2023-05-18T15:28:08.996Z,18.33
2023-05-18T15:30:35.470Z,18.36
2023-05-18T15:33:06.205Z,18.22
2023-05-18T15:35:34.768Z,18.12
2023-05-18T15:38:01.231Z,17.97
2023-05-18T15:40:27.856Z,18.10
2023-05-18T15:42:54.306Z,18.07
2023-05-18T15:45:20.788Z,18.12
2023-05-18T15:47:47.258Z,18.14
2023-05-18T15:50:13.779Z,18.07
2023-05-18T15:52:40.225Z,18.11
2023-05-18T15:55:07.024Z,18.11
2023-05-18T15:57:33.656Z,17.84
2023-05-18T16:00:00.207Z,17.97
2023-05-18T16:02:26.727Z,18.03
2023-05-18T16:04:53.184Z,18.10
2023-05-18T16:07:19.764Z,18.02
2023-05-18T16:09:47.966Z,18.07
2023-05-18T16:12:14.451Z,18.01
2023-05-18T16:14:40.916Z,17.76
2023-05-18T16:17:07.542Z,17.80
2023-05-18T16:19:34.067Z,17.77
2023-05-18T16:22:00.669Z,17.65
2023-05-18T16:24:27.117Z,17.65
2023-05-18T16:26:53.565Z,17.77
2023-05-18T16:29:20.024Z,17.66
2023-05-18T16:31:46.580Z,17.64
2023-05-18T16:34:13.034Z,17.59
2023-05-18T16:36:39.589Z,17.56
2023-05-18T16:39:07.778Z,17.46
2023-05-18T16:41:34.227Z,17.54
2023-05-18T16:44:00.810Z,17.57
2023-05-18T16:46:27.649Z,17.42
2023-05-18T16:48:54.187Z,17.55
2023-05-18T16:51:20.714Z,17.53
2023-05-18T16:53:47.205Z,17.59
2023-05-18T16:56:13.666Z,17.64
2023-05-18T16:58:40.137Z,17.50
2023-05-18T17:01:16.078Z,17.52
2023-05-18T17:03:46.283Z,17.74
2023-05-18T17:06:12.852Z,17.55
2023-05-18T17:08:39.322Z,17.45
2023-05-18T17:11:05.811Z,17.45
2023-05-18T17:13:32.279Z,17.40
2023-05-18T17:15:58.736Z,17.27
2023-05-18T17:18:25.229Z,17.31
2023-05-18T17:20:51.677Z,17.33
2023-05-18T17:23:18.809Z,17.23
2023-05-18T17:25:46.300Z,17.39
2023-05-18T17:28:13.827Z,17.36
2023-05-18T17:30:40.297Z,17.42
2023-05-18T17:33:06.895Z,17.26
2023-05-18T17:35:34.468Z,17.19
2023-05-18T17:38:00.931Z,17.20
2023-05-18T17:40:27.406Z,17.11
2023-05-18T17:42:53.873Z,17.07
2023-05-18T17:45:20.361Z,16.93
2023-05-18T17:47:46.843Z,16.90
2023-05-18T17:50:16.103Z,16.77
2023-05-18T17:52:42.541Z,16.65
2023-05-18T17:55:09.531Z,16.66
2023-05-18T17:57:36.063Z,16.51
2023-05-18T18:00:02.556Z,16.53
2023-05-18T18:02:37.754Z,16.54
2023-05-18T18:05:04.391Z,16.51
2023-05-18T18:07:30.829Z,16.48
2023-05-18T18:09:57.270Z,16.59
2023-05-18T18:12:23.712Z,16.78
2023-05-18T18:14:50.260Z,16.75
2023-05-18T18:17:16.757Z,16.78
2023-05-18T18:19:43.252Z,16.77
2023-05-18T18:22:09.736Z,16.71
2023-05-18T18:24:36.267Z,16.76
2023-05-18T18:27:02.906Z,16.62
2023-05-18T18:29:30.981Z,16.66
2023-05-18T18:31:57.548Z,16.62
2023-05-18T18:34:24.037Z,16.57
2023-05-18T18:36:50.559Z,16.56
2023-05-18T18:39:17.010Z,16.53
2023-05-18T18:41:43.506Z,16.48
2023-05-18T18:44:09.966Z,16.45
2023-05-18T18:46:36.512Z,16.29
2023-05-18T18:49:02.989Z,16.19
2023-05-18T18:51:29.637Z,16.25
2023-05-18T18:53:56.138Z,16.17
2023-05-18T18:56:24.269Z,16.07
2023-05-18T18:58:50.946Z,16.03
2023-05-18T19:01:17.508Z,15.92
2023-05-18T19:03:44.075Z,15.93
2023-05-18T19:06:11.336Z,15.86
2023-05-18T19:08:37.826Z,15.86
2023-05-18T19:11:04.297Z,15.77
2023-05-18T19:13:30.751Z,15.81
2023-05-18T19:15:58.098Z,15.68
2023-05-18T19:18:24.705Z,15.69
2023-05-18T19:20:51.199Z,15.51
2023-05-18T19:23:17.708Z,15.41
2023-05-18T19:25:44.191Z,15.39
2023-05-18T19:28:10.710Z,15.18
2023-05-18T19:30:37.288Z,15.03
2023-05-18T19:33:03.779Z,15.05
2023-05-18T19:35:31.867Z,14.87
2023-05-18T19:37:58.901Z,14.96
2023-05-18T19:40:27.216Z,14.83
2023-05-18T19:42:53.811Z,14.89
2023-05-18T19:45:20.321Z,14.76
2023-05-18T19:47:46.845Z,14.62
2023-05-18T19:50:13.376Z,14.52
2023-05-18T19:52:39.876Z,14.50
2023-05-18T19:55:06.759Z,14.33
2023-05-18T19:57:33.227Z,14.33
2023-05-18T19:59:59.814Z,14.18
2023-05-18T20:02:26.368Z,14.07
2023-05-18T20:04:53.802Z,13.95
2023-05-18T20:07:20.519Z,13.84
2023-05-18T20:09:47.072Z,13.86
2023-05-18T20:12:13.586Z,13.73
2023-05-18T20:14:40.064Z,13.73
2023-05-18T20:17:06.582Z,13.67
2023-05-18T20:19:33.207Z,13.72
2023-05-18T20:21:59.896Z,13.67
2023-05-18T20:24:26.359Z,13.27
2023-05-18T20:26:53.277Z,12.99
2023-05-18T20:29:19.772Z,12.88
2023-05-18T20:31:46.356Z,12.90
2023-05-18T20:34:12.872Z,12.93
2023-05-18T20:36:39.369Z,12.88
2023-05-18T20:39:07.206Z,12.96
2023-05-18T20:41:33.733Z,13.00
2023-05-18T20:44:01.927Z,12.81
2023-05-18T20:46:31.081Z,12.77
2023-05-18T20:48:57.768Z,12.69
2023-05-18T20:51:24.695Z,12.67
2023-05-18T20:53:51.444Z,12.51
2023-05-18T20:56:18.812Z,12.60
2023-05-18T20:58:48.627Z,12.57
2023-05-18T21:01:16.661Z,12.66
2023-05-18T21:03:45.239Z,12.75
2023-05-18T21:06:13.060Z,12.63
2023-05-18T21:08:40.534Z,12.62
2023-05-18T21:11:07.124Z,12.68
2023-05-18T21:13:35.696Z,12.67
2023-05-18T21:16:02.360Z,12.64
2023-05-18T21:18:28.842Z,12.64
2023-05-18T21:20:57.350Z,12.60
2023-05-18T21:23:23.847Z,12.50
2023-05-18T21:25:50.650Z,12.57
2023-05-18T21:28:17.541Z,12.58
2023-05-18T21:30:45.628Z,12.45
2023-05-18T21:33:12.271Z,12.65
2023-05-18T21:35:38.897Z,12.55
2023-05-18T21:38:05.350Z,12.43
2023-05-18T21:40:32.063Z,12.32
2023-05-18T21:42:58.731Z,12.31
2023-05-18T21:45:25.450Z,12.25
2023-05-18T21:47:51.946Z,12.27
2023-05-18T21:50:18.436Z,12.20
2023-05-18T21:52:44.890Z,12.29
2023-05-18T21:55:11.428Z,12.21
2023-05-18T21:57:37.910Z,12.15
2023-05-18T22:00:06.343Z,12.09
2023-05-18T22:02:39.323Z,12.04
2023-05-18T22:05:06.275Z,11.96
2023-05-18T22:07:32.709Z,11.94
2023-05-18T22:09:59.215Z,11.99
2023-05-18T22:12:25.678Z,11.94
2023-05-18T22:14:52.138Z,11.80
2023-05-18T22:17:18.597Z,11.86
2023-05-18T22:19:45.562Z,11.91
2023-05-18T22:22:19.477Z,11.89
2023-05-18T22:24:55.476Z,11.96
2023-05-18T22:27:22.184Z,11.85
2023-05-18T22:29:49.149Z,11.72
2023-05-18T22:32:17.729Z,11.75
2023-05-18T22:34:44.202Z,11.70
2023-05-18T22:37:10.879Z,11.57
2023-05-18T22:39:37.336Z,11.53
2023-05-18T22:42:03.906Z,11.57
2023-05-18T22:44:30.482Z,11.45
2023-05-18T22:46:57.101Z,11.42
2023-05-18T22:49:23.687Z,11.42
2023-05-18T22:51:50.119Z,11.31
2023-05-18T22:54:16.567Z,11.30
2023-05-18T22:56:43.004Z,11.39
2023-05-18T22:59:11.526Z,11.41
2023-05-18T23:01:38.268Z,11.40
2023-05-18T23:04:04.853Z,11.32
2023-05-18T23:06:31.698Z,11.31
2023-05-18T23:09:00.403Z,11.46
2023-05-18T23:11:28.521Z,11.44
2023-05-18T23:13:55.135Z,11.19
2023-05-18T23:16:22.658Z,11.30
2023-05-18T23:18:50.540Z,11.42
2023-05-18T23:21:17.161Z,11.51
2023-05-18T23:23:45.588Z,11.41
2023-05-18T23:26:12.687Z,11.51
2023-05-18T23:28:39.222Z,11.44
2023-05-18T23:31:05.680Z,11.51
2023-05-18T23:33:32.420Z,11.44
2023-05-18T23:36:02.472Z,11.50
2023-05-18T23:38:34.816Z,11.48
2023-05-18T23:41:05.198Z,11.51
2023-05-18T23:43:31.847Z,11.45
2023-05-18T23:45:59.800Z,11.50
2023-05-18T23:48:27.575Z,11.44
2023-05-18T23:50:59.629Z,11.45
2023-05-18T23:53:27.008Z,11.30
2023-05-18T23:55:53.826Z,11.40
2023-05-18T23:58:23.523Z,11.23
